• Join FlightAware (Why Join?)
  • Login
  • US Flag 
06:24PM EST


 

Airport Tracker/Info


-or-


 

Live Flight TrackerFlight Track Log ✈ N960DL ✈ 03-May-2013 ✈ KPNS - KATL

Flight Track Log - Related Links

Times and Time Zones

All times are in EDT time to prevent confusion due to time zone crossing. See the N960DL flight status page for this flight to view local times or setup timezone preferences in your user account.

Time Position Orientation Groundspeed Altitude Reporting Facility
EDT Latitude Longitude Course Direction KTS MPH feet Rate Location/Type
01:20PM 30.4744 -87.1706 24° Northeast 140 161 1,100  Level Jacksonville Center
01:22PM 30.5317 -87.0814 53° Northeast 244 281 4,300 2,100 Climbing Jacksonville Center
01:23PM 30.7701 -87.0266 16° North  Level FlightAware Approximate
01:23PM 30.6036 -87.0533 19° North 244 281 7,100  Level Jacksonville Center
01:24PM 30.8753 -86.9860 25° Northeast  Level FlightAware Approximate
01:24PM 30.6733 -87.0225 21° North 256 295 9,700  Level Jacksonville Center
01:25PM 30.9755 -86.9303 25° Northeast  Level FlightAware Approximate
01:25PM 30.7561 -86.9850 21° North 281 323 11,300  Level Jacksonville Center
01:26PM 31.0661 -86.8826 24° Northeast  Level FlightAware Approximate
01:26PM 30.8478 -86.9236 30° Northeast 327 376 12,700  Level Jacksonville Center
01:27PM 30.9461 -86.8528 32° Northeast 380 437 14,800 2,160 Climbing Jacksonville Center
01:28PM 31.0508 -86.7697 34° Northeast 401 461 17,100 2,040 Climbing Jacksonville Center
01:29PM 31.1578 -86.6894 33° Northeast 425 489 18,900 1,860 Climbing Jacksonville Center
01:30PM 31.2644 -86.6086 33° Northeast 447 514 20,900 1,320 Climbing Jacksonville Center
01:32PM 31.4897 -86.4375 33° Northeast 476 548 23,000 660 Climbing Atlanta Center
01:33PM 31.6019 -86.3478 34° Northeast 482 555 23,000  Level Atlanta Center
01:34PM 31.7161 -86.2606 33° Northeast 482 555 23,000  Level Atlanta Center
01:35PM 31.8283 -86.1728 34° Northeast 482 555 23,000  Level Atlanta Center
01:36PM 31.9572 -86.0756 33° Northeast 496 571 23,000  Level Atlanta Center
01:37PM 32.0672 -85.9872 34° Northeast 491 565 23,000  Level Atlanta Center
01:38PM 32.1792 -85.8989 34° Northeast 484 557 23,000  Level Atlanta Center
01:39PM 32.2892 -85.8128 33° Northeast 484 557 23,000  Level Atlanta Center
01:40PM 32.3928 -85.7214 37° Northeast 473 544 23,000  Level Atlanta Center
01:41PM 32.4961 -85.6347 35° Northeast 462 532 23,000  Level Atlanta Center
01:42PM 32.5931 -85.5503 36° Northeast 447 514 23,000 -840 Level Atlanta Center
01:43PM 32.6858 -85.4678 37° Northeast 428 493 21,400 -1,800 Descending Atlanta Center
01:44PM 32.7744 -85.3903 36° Northeast 409 471 19,500 -1,980 Descending Atlanta Center
01:45PM 32.8589 -85.3172 36° Northeast 391 450 17,500 -2,100 Descending Atlanta Center
01:46PM 32.9431 -85.2417 37° Northeast 379 436 15,400 -1,980 Descending Atlanta Center
01:47PM 33.0250 -85.1686 47° Northeast 374 430 13,600 -1,680 Descending Atlanta Center
01:48PM 33.0650 -85.1593 47° Northeast  Level FlightAware Approximate
01:48PM 33.1050 -85.1028 35° Northeast 360 414 12,100  Level Atlanta Center
01:49PM 33.1767 -85.0364 38° Northeast 353 406 12,000 -360 Descending Atlanta Center
01:50PM 33.2378 -84.9603 46° Northeast 322 371 11,400 -1,200 Descending Atlanta Center
01:51PM 33.2925 -84.8911 47° Northeast 291 335 9,600 -1,860 Descending Atlanta Center
01:52PM 33.3450 -84.8222 48° Northeast 285 328 7,700 -1,920 Descending Atlanta Center
01:53PM 33.4000 -84.7833 31° Northeast 293 337 6,000 -1,860 Descending Atlanta TRACON
01:54PM 33.4833 -84.7833 360° North 278 320 4,200 -1,260 Descending Atlanta TRACON
01:55PM 33.5500 -84.7833 360° North 244 281 3,500 -600 Descending Atlanta TRACON
01:56PM 33.6167 -84.7667 12° North 221 254 3,000 -300 Descending Atlanta TRACON
01:57PM 33.6167 -84.7000 90° East 175 201 3,000  Level Atlanta TRACON
01:58PM 33.6167 -84.6500 90° East 164 189 3,000  Level Atlanta TRACON